sensor_id;sensor_type;location;lat;lon;timestamp;P1;durP1;ratioP1;P2;durP2;ratioP2
19754;SDS011;10036;47.812;9.274;2022-09-09T00:01:37;3.88;;;1.65;;
19754;SDS011;10036;47.812;9.274;2022-09-09T00:04:15;2.20;;;1.48;;
19754;SDS011;10036;47.812;9.274;2022-09-09T00:06:53;4.50;;;1.75;;
19754;SDS011;10036;47.812;9.274;2022-09-09T00:09:26;3.00;;;1.88;;
19754;SDS011;10036;47.812;9.274;2022-09-09T00:11:56;5.68;;;1.42;;
19754;SDS011;10036;47.812;9.274;2022-09-09T00:14:32;4.68;;;1.92;;
19754;SDS011;10036;47.812;9.274;2022-09-09T00:17:04;4.13;;;1.48;;
19754;SDS011;10036;47.812;9.274;2022-09-09T00:19:37;5.13;;;1.63;;
19754;SDS011;10036;47.812;9.274;2022-09-09T00:22:14;4.30;;;2.10;;
19754;SDS011;10036;47.812;9.274;2022-09-09T00:24:43;6.85;;;2.58;;
19754;SDS011;10036;47.812;9.274;2022-09-09T00:27:14;5.68;;;2.10;;
19754;SDS011;10036;47.812;9.274;2022-09-09T00:29:52;6.28;;;2.30;;
19754;SDS011;10036;47.812;9.274;2022-09-09T00:32:20;5.65;;;2.33;;
19754;SDS011;10036;47.812;9.274;2022-09-09T00:34:49;6.20;;;2.40;;
19754;SDS011;10036;47.812;9.274;2022-09-09T00:37:18;6.35;;;2.60;;
19754;SDS011;10036;47.812;9.274;2022-09-09T00:39:46;7.03;;;2.95;;
19754;SDS011;10036;47.812;9.274;2022-09-09T00:42:17;7.07;;;2.60;;
19754;SDS011;10036;47.812;9.274;2022-09-09T00:44:56;5.53;;;2.03;;
19754;SDS011;10036;47.812;9.274;2022-09-09T00:47:30;6.03;;;2.00;;
19754;SDS011;10036;47.812;9.274;2022-09-09T00:50:10;4.70;;;1.80;;
19754;SDS011;10036;47.812;9.274;2022-09-09T00:53:00;8.23;;;1.90;;
19754;SDS011;10036;47.812;9.274;2022-09-09T00:55:39;2.95;;;1.75;;
19754;SDS011;10036;47.812;9.274;2022-09-09T00:58:11;4.50;;;1.80;;
19754;SDS011;10036;47.812;9.274;2022-09-09T01:00:41;2.53;;;1.60;;
19754;SDS011;10036;47.812;9.274;2022-09-09T01:03:14;4.75;;;1.70;;
19754;SDS011;10036;47.812;9.274;2022-09-09T01:05:51;4.55;;;2.13;;
19754;SDS011;10036;47.812;9.274;2022-09-09T01:08:31;3.50;;;1.90;;
19754;SDS011;10036;47.812;9.274;2022-09-09T01:11:10;2.90;;;2.45;;
19754;SDS011;10036;47.812;9.274;2022-09-09T01:13:42;6.50;;;2.70;;
19754;SDS011;10036;47.812;9.274;2022-09-09T01:16:15;5.50;;;2.45;;
19754;SDS011;10036;47.812;9.274;2022-09-09T01:18:44;11.98;;;4.68;;
19754;SDS011;10036;47.812;9.274;2022-09-09T01:21:15;6.70;;;2.90;;
19754;SDS011;10036;47.812;9.274;2022-09-09T01:23:57;5.28;;;2.25;;
19754;SDS011;10036;47.812;9.274;2022-09-09T01:26:40;2.95;;;1.77;;
19754;SDS011;10036;47.812;9.274;2022-09-09T01:29:09;5.20;;;1.85;;
19754;SDS011;10036;47.812;9.274;2022-09-09T01:31:38;6.53;;;2.60;;
19754;SDS011;10036;47.812;9.274;2022-09-09T01:34:10;6.80;;;3.78;;
19754;SDS011;10036;47.812;9.274;2022-09-09T01:36:38;11.73;;;4.25;;
19754;SDS011;10036;47.812;9.274;2022-09-09T01:39:09;5.20;;;3.17;;
19754;SDS011;10036;47.812;9.274;2022-09-09T01:41:36;5.03;;;2.60;;
19754;SDS011;10036;47.812;9.274;2022-09-09T01:44:05;3.75;;;2.33;;
19754;SDS011;10036;47.812;9.274;2022-09-09T01:46:33;6.03;;;2.65;;
19754;SDS011;10036;47.812;9.274;2022-09-09T01:49:00;6.53;;;2.67;;
19754;SDS011;10036;47.812;9.274;2022-09-09T01:51:29;7.63;;;3.65;;
19754;SDS011;10036;47.812;9.274;2022-09-09T01:53:56;8.32;;;3.45;;
19754;SDS011;10036;47.812;9.274;2022-09-09T01:56:29;6.32;;;3.08;;
19754;SDS011;10036;47.812;9.274;2022-09-09T01:59:09;4.97;;;1.80;;
19754;SDS011;10036;47.812;9.274;2022-09-09T02:01:57;5.85;;;1.63;;
19754;SDS011;10036;47.812;9.274;2022-09-09T02:04:36;2.85;;;1.58;;
19754;SDS011;10036;47.812;9.274;2022-09-09T02:07:07;6.60;;;3.10;;
19754;SDS011;10036;47.812;9.274;2022-09-09T02:09:40;11.55;;;5.53;;
19754;SDS011;10036;47.812;9.274;2022-09-09T02:12:13;9.68;;;5.03;;
19754;SDS011;10036;47.812;9.274;2022-09-09T02:14:46;5.90;;;3.22;;
19754;SDS011;10036;47.812;9.274;2022-09-09T02:17:18;11.68;;;5.05;;
19754;SDS011;10036;47.812;9.274;2022-09-09T02:19:51;7.70;;;3.78;;
19754;SDS011;10036;47.812;9.274;2022-09-09T02:22:23;7.93;;;3.83;;
19754;SDS011;10036;47.812;9.274;2022-09-09T02:24:53;9.82;;;4.55;;
19754;SDS011;10036;47.812;9.274;2022-09-09T02:27:24;8.05;;;4.53;;
19754;SDS011;10036;47.812;9.274;2022-09-09T02:29:53;11.48;;;4.20;;
19754;SDS011;10036;47.812;9.274;2022-09-09T02:32:23;6.70;;;2.78;;
19754;SDS011;10036;47.812;9.274;2022-09-09T02:34:51;4.38;;;2.08;;
19754;SDS011;10036;47.812;9.274;2022-09-09T02:37:23;5.30;;;2.28;;
19754;SDS011;10036;47.812;9.274;2022-09-09T02:39:54;2.50;;;1.83;;
19754;SDS011;10036;47.812;9.274;2022-09-09T02:42:21;4.22;;;1.90;;
19754;SDS011;10036;47.812;9.274;2022-09-09T02:44:49;4.53;;;2.35;;
19754;SDS011;10036;47.812;9.274;2022-09-09T02:47:27;5.88;;;2.90;;
19754;SDS011;10036;47.812;9.274;2022-09-09T02:50:02;5.97;;;3.08;;
19754;SDS011;10036;47.812;9.274;2022-09-09T02:52:37;7.57;;;2.92;;
19754;SDS011;10036;47.812;9.274;2022-09-09T02:55:13;4.57;;;2.67;;
19754;SDS011;10036;47.812;9.274;2022-09-09T02:57:44;6.68;;;2.50;;
19754;SDS011;10036;47.812;9.274;2022-09-09T03:00:13;4.82;;;2.10;;
19754;SDS011;10036;47.812;9.274;2022-09-09T03:02:42;3.75;;;2.40;;
19754;SDS011;10036;47.812;9.274;2022-09-09T03:05:10;6.35;;;2.60;;
19754;SDS011;10036;47.812;9.274;2022-09-09T03:07:38;4.13;;;2.95;;
19754;SDS011;10036;47.812;9.274;2022-09-09T03:10:05;8.35;;;2.70;;
19754;SDS011;10036;47.812;9.274;2022-09-09T03:12:33;10.40;;;3.10;;
19754;SDS011;10036;47.812;9.274;2022-09-09T03:15:00;2.95;;;2.50;;
19754;SDS011;10036;47.812;9.274;2022-09-09T03:17:26;4.15;;;2.50;;
19754;SDS011;10036;47.812;9.274;2022-09-09T03:19:55;5.20;;;3.03;;
19754;SDS011;10036;47.812;9.274;2022-09-09T03:22:22;3.92;;;2.55;;
19754;SDS011;10036;47.812;9.274;2022-09-09T03:24:50;4.68;;;2.30;;
19754;SDS011;10036;47.812;9.274;2022-09-09T03:27:17;5.85;;;2.58;;
19754;SDS011;10036;47.812;9.274;2022-09-09T03:29:45;5.13;;;2.60;;
19754;SDS011;10036;47.812;9.274;2022-09-09T03:32:12;4.32;;;2.45;;
19754;SDS011;10036;47.812;9.274;2022-09-09T03:34:42;4.65;;;2.50;;
19754;SDS011;10036;47.812;9.274;2022-09-09T03:37:10;4.40;;;2.53;;
19754;SDS011;10036;47.812;9.274;2022-09-09T03:39:37;6.05;;;3.40;;
19754;SDS011;10036;47.812;9.274;2022-09-09T03:42:04;8.30;;;3.50;;
19754;SDS011;10036;47.812;9.274;2022-09-09T03:44:31;7.75;;;3.08;;
19754;SDS011;10036;47.812;9.274;2022-09-09T03:46:58;3.25;;;2.75;;
19754;SDS011;10036;47.812;9.274;2022-09-09T03:49:26;6.45;;;3.17;;
19754;SDS011;10036;47.812;9.274;2022-09-09T03:51:53;5.38;;;2.92;;
19754;SDS011;10036;47.812;9.274;2022-09-09T03:54:22;7.10;;;2.70;;
19754;SDS011;10036;47.812;9.274;2022-09-09T03:56:49;5.10;;;2.50;;
19754;SDS011;10036;47.812;9.274;2022-09-09T03:59:16;4.32;;;2.72;;
19754;SDS011;10036;47.812;9.274;2022-09-09T04:01:43;8.85;;;2.70;;
19754;SDS011;10036;47.812;9.274;2022-09-09T04:04:10;7.15;;;3.10;;
19754;SDS011;10036;47.812;9.274;2022-09-09T04:06:37;5.90;;;2.80;;
19754;SDS011;10036;47.812;9.274;2022-09-09T04:09:04;6.82;;;3.00;;
19754;SDS011;10036;47.812;9.274;2022-09-09T04:11:32;5.85;;;2.80;;
19754;SDS011;10036;47.812;9.274;2022-09-09T04:13:59;5.25;;;3.00;;
19754;SDS011;10036;47.812;9.274;2022-09-09T04:16:26;7.72;;;3.00;;
19754;SDS011;10036;47.812;9.274;2022-09-09T04:18:53;5.25;;;2.58;;
19754;SDS011;10036;47.812;9.274;2022-09-09T04:21:21;7.18;;;2.40;;
19754;SDS011;10036;47.812;9.274;2022-09-09T04:23:48;5.57;;;1.98;;
19754;SDS011;10036;47.812;9.274;2022-09-09T04:26:15;3.97;;;1.85;;
19754;SDS011;10036;47.812;9.274;2022-09-09T04:28:43;6.88;;;2.30;;
19754;SDS011;10036;47.812;9.274;2022-09-09T04:31:10;4.03;;;2.28;;
19754;SDS011;10036;47.812;9.274;2022-09-09T04:33:41;4.85;;;2.38;;
19754;SDS011;10036;47.812;9.274;2022-09-09T04:36:08;5.57;;;2.70;;
19754;SDS011;10036;47.812;9.274;2022-09-09T04:38:35;4.60;;;2.92;;
19754;SDS011;10036;47.812;9.274;2022-09-09T04:41:02;5.53;;;2.85;;
19754;SDS011;10036;47.812;9.274;2022-09-09T04:43:29;6.05;;;3.35;;
19754;SDS011;10036;47.812;9.274;2022-09-09T04:45:57;7.75;;;3.65;;
19754;SDS011;10036;47.812;9.274;2022-09-09T04:48:24;7.20;;;3.72;;
19754;SDS011;10036;47.812;9.274;2022-09-09T04:50:55;8.38;;;3.80;;
19754;SDS011;10036;47.812;9.274;2022-09-09T04:53:23;6.93;;;3.15;;
19754;SDS011;10036;47.812;9.274;2022-09-09T04:55:50;4.60;;;2.55;;
19754;SDS011;10036;47.812;9.274;2022-09-09T04:58:17;3.63;;;2.38;;
19754;SDS011;10036;47.812;9.274;2022-09-09T05:00:46;5.30;;;2.10;;
19754;SDS011;10036;47.812;9.274;2022-09-09T05:03:14;3.63;;;2.13;;
19754;SDS011;10036;47.812;9.274;2022-09-09T05:05:41;3.58;;;2.10;;
19754;SDS011;10036;47.812;9.274;2022-09-09T05:08:09;3.38;;;2.10;;
19754;SDS011;10036;47.812;9.274;2022-09-09T05:10:36;4.55;;;2.20;;
19754;SDS011;10036;47.812;9.274;2022-09-09T05:13:04;7.18;;;1.80;;
19754;SDS011;10036;47.812;9.274;2022-09-09T05:15:32;2.88;;;1.75;;
19754;SDS011;10036;47.812;9.274;2022-09-09T05:18:00;4.43;;;2.10;;
19754;SDS011;10036;47.812;9.274;2022-09-09T05:20:29;3.83;;;2.08;;
19754;SDS011;10036;47.812;9.274;2022-09-09T05:22:56;4.18;;;2.08;;
19754;SDS011;10036;47.812;9.274;2022-09-09T05:25:24;5.85;;;2.40;;
19754;SDS011;10036;47.812;9.274;2022-09-09T05:27:51;6.28;;;2.90;;
19754;SDS011;10036;47.812;9.274;2022-09-09T05:30:19;6.72;;;2.20;;
19754;SDS011;10036;47.812;9.274;2022-09-09T05:32:47;3.53;;;2.30;;
19754;SDS011;10036;47.812;9.274;2022-09-09T05:35:14;5.45;;;3.05;;
19754;SDS011;10036;47.812;9.274;2022-09-09T05:37:42;5.50;;;2.20;;
19754;SDS011;10036;47.812;9.274;2022-09-09T05:40:11;3.13;;;2.10;;
19754;SDS011;10036;47.812;9.274;2022-09-09T05:42:38;2.13;;;1.95;;
19754;SDS011;10036;47.812;9.274;2022-09-09T05:45:05;3.92;;;2.05;;
19754;SDS011;10036;47.812;9.274;2022-09-09T05:47:33;4.20;;;2.20;;
19754;SDS011;10036;47.812;9.274;2022-09-09T05:50:00;5.82;;;2.10;;
19754;SDS011;10036;47.812;9.274;2022-09-09T05:52:27;2.45;;;2.00;;
19754;SDS011;10036;47.812;9.274;2022-09-09T05:54:55;6.25;;;2.33;;
19754;SDS011;10036;47.812;9.274;2022-09-09T05:57:22;4.25;;;2.47;;
19754;SDS011;10036;47.812;9.274;2022-09-09T05:59:50;2.30;;;2.05;;
19754;SDS011;10036;47.812;9.274;2022-09-09T06:02:17;4.22;;;2.38;;
19754;SDS011;10036;47.812;9.274;2022-09-09T06:04:43;5.18;;;2.03;;
19754;SDS011;10036;47.812;9.274;2022-09-09T06:07:10;11.68;;;2.15;;
19754;SDS011;10036;47.812;9.274;2022-09-09T06:09:39;2.70;;;1.98;;
19754;SDS011;10036;47.812;9.274;2022-09-09T06:12:08;3.05;;;2.00;;
19754;SDS011;10036;47.812;9.274;2022-09-09T06:14:35;4.57;;;2.03;;
19754;SDS011;10036;47.812;9.274;2022-09-09T06:17:02;5.78;;;2.38;;
19754;SDS011;10036;47.812;9.274;2022-09-09T06:19:29;6.10;;;2.40;;
19754;SDS011;10036;47.812;9.274;2022-09-09T06:21:56;5.88;;;2.17;;
19754;SDS011;10036;47.812;9.274;2022-09-09T06:24:23;5.05;;;2.20;;
19754;SDS011;10036;47.812;9.274;2022-09-09T06:26:50;7.28;;;2.35;;
19754;SDS011;10036;47.812;9.274;2022-09-09T06:29:20;4.07;;;1.90;;
19754;SDS011;10036;47.812;9.274;2022-09-09T06:31:47;5.68;;;2.50;;
19754;SDS011;10036;47.812;9.274;2022-09-09T06:34:14;4.10;;;2.03;;
19754;SDS011;10036;47.812;9.274;2022-09-09T06:36:41;4.55;;;2.13;;
19754;SDS011;10036;47.812;9.274;2022-09-09T06:39:07;3.45;;;2.00;;
19754;SDS011;10036;47.812;9.274;2022-09-09T06:41:36;4.43;;;2.28;;
19754;SDS011;10036;47.812;9.274;2022-09-09T06:44:04;5.10;;;2.20;;
19754;SDS011;10036;47.812;9.274;2022-09-09T06:46:32;4.80;;;1.83;;
19754;SDS011;10036;47.812;9.274;2022-09-09T06:49:00;3.42;;;2.15;;
19754;SDS011;10036;47.812;9.274;2022-09-09T06:51:28;5.13;;;2.60;;
19754;SDS011;10036;47.812;9.274;2022-09-09T06:53:56;6.47;;;2.35;;
19754;SDS011;10036;47.812;9.274;2022-09-09T06:56:25;2.78;;;2.20;;
19754;SDS011;10036;47.812;9.274;2022-09-09T06:58:53;3.50;;;2.30;;
19754;SDS011;10036;47.812;9.274;2022-09-09T07:01:22;2.45;;;2.10;;
19754;SDS011;10036;47.812;9.274;2022-09-09T07:03:52;3.10;;;2.03;;
19754;SDS011;10036;47.812;9.274;2022-09-09T07:06:21;3.03;;;2.10;;
19754;SDS011;10036;47.812;9.274;2022-09-09T07:08:50;6.22;;;2.20;;
19754;SDS011;10036;47.812;9.274;2022-09-09T07:11:18;4.07;;;2.50;;
19754;SDS011;10036;47.812;9.274;2022-09-09T07:13:45;5.07;;;2.33;;
19754;SDS011;10036;47.812;9.274;2022-09-09T07:16:13;5.95;;;2.22;;
19754;SDS011;10036;47.812;9.274;2022-09-09T07:18:42;3.20;;;2.00;;
19754;SDS011;10036;47.812;9.274;2022-09-09T07:21:11;4.07;;;1.90;;
19754;SDS011;10036;47.812;9.274;2022-09-09T07:23:39;4.25;;;2.00;;
19754;SDS011;10036;47.812;9.274;2022-09-09T07:26:07;4.18;;;2.05;;
19754;SDS011;10036;47.812;9.274;2022-09-09T07:28:35;2.17;;;1.65;;
19754;SDS011;10036;47.812;9.274;2022-09-09T07:31:04;3.35;;;1.85;;
19754;SDS011;10036;47.812;9.274;2022-09-09T07:33:31;3.17;;;1.95;;
19754;SDS011;10036;47.812;9.274;2022-09-09T07:36:04;7.20;;;1.70;;
19754;SDS011;10036;47.812;9.274;2022-09-09T07:38:36;3.15;;;2.00;;
19754;SDS011;10036;47.812;9.274;2022-09-09T07:41:05;3.42;;;1.45;;
19754;SDS011;10036;47.812;9.274;2022-09-09T07:43:33;3.45;;;1.60;;
19754;SDS011;10036;47.812;9.274;2022-09-09T07:46:00;2.85;;;1.40;;
19754;SDS011;10036;47.812;9.274;2022-09-09T07:48:27;3.35;;;1.40;;
19754;SDS011;10036;47.812;9.274;2022-09-09T07:51:02;3.95;;;1.95;;
19754;SDS011;10036;47.812;9.274;2022-09-09T07:53:32;2.67;;;1.35;;
19754;SDS011;10036;47.812;9.274;2022-09-09T07:56:03;2.95;;;1.27;;
19754;SDS011;10036;47.812;9.274;2022-09-09T07:58:31;1.88;;;1.40;;
19754;SDS011;10036;47.812;9.274;2022-09-09T08:00:58;4.20;;;1.33;;
19754;SDS011;10036;47.812;9.274;2022-09-09T08:03:25;2.08;;;1.38;;
19754;SDS011;10036;47.812;9.274;2022-09-09T08:05:52;2.53;;;1.40;;
19754;SDS011;10036;47.812;9.274;2022-09-09T08:08:19;4.45;;;1.63;;
19754;SDS011;10036;47.812;9.274;2022-09-09T08:10:45;1.55;;;1.30;;
19754;SDS011;10036;47.812;9.274;2022-09-09T08:13:14;2.67;;;1.40;;
19754;SDS011;10036;47.812;9.274;2022-09-09T08:15:42;4.95;;;1.50;;
19754;SDS011;10036;47.812;9.274;2022-09-09T08:18:09;3.22;;;1.63;;
19754;SDS011;10036;47.812;9.274;2022-09-09T08:20:36;1.73;;;1.30;;
19754;SDS011;10036;47.812;9.274;2022-09-09T08:23:03;1.13;;;1.02;;
19754;SDS011;10036;47.812;9.274;2022-09-09T08:25:31;2.00;;;1.40;;
19754;SDS011;10036;47.812;9.274;2022-09-09T08:27:59;1.95;;;1.30;;
19754;SDS011;10036;47.812;9.274;2022-09-09T08:30:29;3.08;;;1.42;;
19754;SDS011;10036;47.812;9.274;2022-09-09T08:32:56;1.40;;;1.30;;
19754;SDS011;10036;47.812;9.274;2022-09-09T08:35:25;2.92;;;1.40;;
19754;SDS011;10036;47.812;9.274;2022-09-09T08:37:53;3.30;;;1.20;;
19754;SDS011;10036;47.812;9.274;2022-09-09T08:40:21;3.30;;;1.38;;
19754;SDS011;10036;47.812;9.274;2022-09-09T08:42:53;2.83;;;1.40;;
19754;SDS011;10036;47.812;9.274;2022-09-09T08:45:25;2.70;;;1.10;;
19754;SDS011;10036;47.812;9.274;2022-09-09T08:48:02;2.05;;;1.30;;
19754;SDS011;10036;47.812;9.274;2022-09-09T08:50:39;3.92;;;1.58;;
19754;SDS011;10036;47.812;9.274;2022-09-09T08:53:09;1.92;;;1.20;;
19754;SDS011;10036;47.812;9.274;2022-09-09T08:55:42;3.63;;;1.45;;
19754;SDS011;10036;47.812;9.274;2022-09-09T08:58:14;2.90;;;1.40;;
19754;SDS011;10036;47.812;9.274;2022-09-09T09:03:47;2.83;;;1.25;;
19754;SDS011;10036;47.812;9.274;2022-09-09T09:06:23;2.03;;;1.20;;
19754;SDS011;10036;47.812;9.274;2022-09-09T09:09:02;4.35;;;1.58;;
19754;SDS011;10036;47.812;9.274;2022-09-09T09:11:36;1.58;;;1.20;;
19754;SDS011;10036;47.812;9.274;2022-09-09T09:14:08;2.53;;;1.30;;
19754;SDS011;10036;47.812;9.274;2022-09-09T09:16:40;2.90;;;1.30;;
19754;SDS011;10036;47.812;9.274;2022-09-09T09:19:17;3.40;;;1.25;;
19754;SDS011;10036;47.812;9.274;2022-09-09T09:21:48;4.22;;;1.40;;
19754;SDS011;10036;47.812;9.274;2022-09-09T09:24:22;4.57;;;1.27;;
19754;SDS011;10036;47.812;9.274;2022-09-09T09:26:57;6.55;;;1.80;;
19754;SDS011;10036;47.812;9.274;2022-09-09T09:29:27;1.73;;;1.00;;
19754;SDS011;10036;47.812;9.274;2022-09-09T09:31:55;2.90;;;1.40;;
19754;SDS011;10036;47.812;9.274;2022-09-09T09:34:26;2.80;;;1.33;;
19754;SDS011;10036;47.812;9.274;2022-09-09T09:36:54;2.25;;;1.23;;
19754;SDS011;10036;47.812;9.274;2022-09-09T09:39:23;3.90;;;1.40;;
19754;SDS011;10036;47.812;9.274;2022-09-09T09:41:52;1.75;;;1.30;;
19754;SDS011;10036;47.812;9.274;2022-09-09T09:44:22;2.97;;;1.13;;
19754;SDS011;10036;47.812;9.274;2022-09-09T09:46:50;1.08;;;1.00;;
19754;SDS011;10036;47.812;9.274;2022-09-09T09:49:19;3.17;;;1.30;;
19754;SDS011;10036;47.812;9.274;2022-09-09T09:51:46;5.15;;;1.40;;
19754;SDS011;10036;47.812;9.274;2022-09-09T09:54:15;2.80;;;1.20;;
19754;SDS011;10036;47.812;9.274;2022-09-09T09:56:49;2.17;;;1.13;;
19754;SDS011;10036;47.812;9.274;2022-09-09T09:59:19;2.45;;;1.20;;
19754;SDS011;10036;47.812;9.274;2022-09-09T10:02:05;2.40;;;1.10;;
19754;SDS011;10036;47.812;9.274;2022-09-09T10:04:44;3.22;;;1.38;;
19754;SDS011;10036;47.812;9.274;2022-09-09T10:07:12;2.33;;;1.40;;
19754;SDS011;10036;47.812;9.274;2022-09-09T10:09:43;5.20;;;1.15;;
19754;SDS011;10036;47.812;9.274;2022-09-09T10:12:14;3.17;;;1.50;;
19754;SDS011;10036;47.812;9.274;2022-09-09T10:14:49;2.90;;;1.42;;
19754;SDS011;10036;47.812;9.274;2022-09-09T10:17:26;1.92;;;1.25;;
19754;SDS011;10036;47.812;9.274;2022-09-09T10:20:04;2.80;;;1.02;;
19754;SDS011;10036;47.812;9.274;2022-09-09T10:22:45;4.03;;;1.20;;
19754;SDS011;10036;47.812;9.274;2022-09-09T10:25:22;1.98;;;1.20;;
19754;SDS011;10036;47.812;9.274;2022-09-09T10:30:59;2.63;;;1.35;;
19754;SDS011;10036;47.812;9.274;2022-09-09T10:33:40;3.92;;;0.98;;
19754;SDS011;10036;47.812;9.274;2022-09-09T10:36:16;3.55;;;1.20;;
19754;SDS011;10036;47.812;9.274;2022-09-09T10:38:47;2.15;;;0.98;;
19754;SDS011;10036;47.812;9.274;2022-09-09T10:41:19;3.15;;;1.17;;
19754;SDS011;10036;47.812;9.274;2022-09-09T10:44:02;2.22;;;1.30;;
19754;SDS011;10036;47.812;9.274;2022-09-09T10:46:48;5.03;;;1.45;;
19754;SDS011;10036;47.812;9.274;2022-09-09T10:49:27;4.57;;;1.08;;
19754;SDS011;10036;47.812;9.274;2022-09-09T10:52:12;2.03;;;1.30;;
19754;SDS011;10036;47.812;9.274;2022-09-09T10:54:47;2.53;;;1.30;;
19754;SDS011;10036;47.812;9.274;2022-09-09T10:57:24;6.53;;;1.30;;
19754;SDS011;10036;47.812;9.274;2022-09-09T10:59:56;2.58;;;0.90;;
19754;SDS011;10036;47.812;9.274;2022-09-09T11:02:28;2.70;;;1.00;;
19754;SDS011;10036;47.812;9.274;2022-09-09T11:04:57;3.53;;;1.35;;
19754;SDS011;10036;47.812;9.274;2022-09-09T11:07:29;3.30;;;1.58;;
19754;SDS011;10036;47.812;9.274;2022-09-09T11:10:04;3.78;;;1.42;;
19754;SDS011;10036;47.812;9.274;2022-09-09T11:12:41;3.08;;;1.00;;
19754;SDS011;10036;47.812;9.274;2022-09-09T11:15:14;4.32;;;1.30;;
19754;SDS011;10036;47.812;9.274;2022-09-09T11:17:46;1.77;;;1.10;;
19754;SDS011;10036;47.812;9.274;2022-09-09T11:20:16;3.33;;;1.30;;
19754;SDS011;10036;47.812;9.274;2022-09-09T11:22:46;3.78;;;1.30;;
19754;SDS011;10036;47.812;9.274;2022-09-09T11:25:18;4.00;;;1.40;;
19754;SDS011;10036;47.812;9.274;2022-09-09T11:27:52;1.50;;;1.15;;
19754;SDS011;10036;47.812;9.274;2022-09-09T11:30:29;3.00;;;1.30;;
19754;SDS011;10036;47.812;9.274;2022-09-09T11:33:23;2.33;;;1.30;;
19754;SDS011;10036;47.812;9.274;2022-09-09T11:36:16;3.83;;;1.17;;
19754;SDS011;10036;47.812;9.274;2022-09-09T11:38:59;3.58;;;1.30;;
19754;SDS011;10036;47.812;9.274;2022-09-09T11:41:40;1.90;;;1.10;;
19754;SDS011;10036;47.812;9.274;2022-09-09T11:44:09;2.85;;;1.08;;
19754;SDS011;10036;47.812;9.274;2022-09-09T11:46:39;3.00;;;0.90;;
19754;SDS011;10036;47.812;9.274;2022-09-09T11:49:23;3.65;;;1.10;;
19754;SDS011;10036;47.812;9.274;2022-09-09T11:51:53;3.08;;;1.08;;
19754;SDS011;10036;47.812;9.274;2022-09-09T11:54:28;2.85;;;1.27;;
19754;SDS011;10036;47.812;9.274;2022-09-09T11:56:57;2.25;;;1.10;;
19754;SDS011;10036;47.812;9.274;2022-09-09T11:59:25;6.13;;;1.60;;
19754;SDS011;10036;47.812;9.274;2022-09-09T12:01:55;3.33;;;1.02;;
19754;SDS011;10036;47.812;9.274;2022-09-09T12:04:27;3.25;;;1.27;;
19754;SDS011;10036;47.812;9.274;2022-09-09T12:06:57;2.67;;;1.30;;
19754;SDS011;10036;47.812;9.274;2022-09-09T12:09:29;3.60;;;1.20;;
19754;SDS011;10036;47.812;9.274;2022-09-09T12:12:24;2.92;;;1.10;;
19754;SDS011;10036;47.812;9.274;2022-09-09T12:17:46;2.47;;;1.13;;
19754;SDS011;10036;47.812;9.274;2022-09-09T12:20:16;2.47;;;1.05;;
19754;SDS011;10036;47.812;9.274;2022-09-09T12:22:53;3.47;;;1.02;;
19754;SDS011;10036;47.812;9.274;2022-09-09T12:25:35;1.35;;;0.82;;
19754;SDS011;10036;47.812;9.274;2022-09-09T12:28:15;2.47;;;1.00;;
19754;SDS011;10036;47.812;9.274;2022-09-09T12:30:46;3.42;;;0.90;;
19754;SDS011;10036;47.812;9.274;2022-09-09T12:33:18;1.60;;;0.80;;
19754;SDS011;10036;47.812;9.274;2022-09-09T12:35:48;3.50;;;1.00;;
19754;SDS011;10036;47.812;9.274;2022-09-09T12:38:21;2.95;;;1.15;;
19754;SDS011;10036;47.812;9.274;2022-09-09T12:41:03;1.40;;;0.88;;
19754;SDS011;10036;47.812;9.274;2022-09-09T12:43:31;1.48;;;0.93;;
19754;SDS011;10036;47.812;9.274;2022-09-09T12:45:59;3.25;;;0.85;;
19754;SDS011;10036;47.812;9.274;2022-09-09T12:48:29;3.47;;;0.90;;
19754;SDS011;10036;47.812;9.274;2022-09-09T12:51:00;2.58;;;1.20;;
19754;SDS011;10036;47.812;9.274;2022-09-09T12:53:29;3.55;;;1.10;;
19754;SDS011;10036;47.812;9.274;2022-09-09T12:55:59;3.55;;;1.08;;
19754;SDS011;10036;47.812;9.274;2022-09-09T12:58:30;1.98;;;1.00;;
19754;SDS011;10036;47.812;9.274;2022-09-09T13:00:59;1.70;;;0.90;;
19754;SDS011;10036;47.812;9.274;2022-09-09T13:03:30;1.90;;;0.90;;
19754;SDS011;10036;47.812;9.274;2022-09-09T13:05:58;2.47;;;0.90;;
19754;SDS011;10036;47.812;9.274;2022-09-09T13:08:36;3.08;;;1.20;;
19754;SDS011;10036;47.812;9.274;2022-09-09T13:11:04;1.88;;;1.00;;
19754;SDS011;10036;47.812;9.274;2022-09-09T13:13:38;2.55;;;1.08;;
19754;SDS011;10036;47.812;9.274;2022-09-09T13:16:07;2.03;;;0.93;;
19754;SDS011;10036;47.812;9.274;2022-09-09T13:18:49;5.00;;;1.15;;
19754;SDS011;10036;47.812;9.274;2022-09-09T13:21:16;2.88;;;1.00;;
19754;SDS011;10036;47.812;9.274;2022-09-09T13:23:47;4.05;;;0.98;;
19754;SDS011;10036;47.812;9.274;2022-09-09T13:26:22;1.15;;;0.80;;
19754;SDS011;10036;47.812;9.274;2022-09-09T13:28:53;2.53;;;1.20;;
19754;SDS011;10036;47.812;9.274;2022-09-09T13:31:21;2.92;;;1.10;;
19754;SDS011;10036;47.812;9.274;2022-09-09T13:33:52;3.50;;;1.15;;
19754;SDS011;10036;47.812;9.274;2022-09-09T13:36:27;1.40;;;1.00;;
19754;SDS011;10036;47.812;9.274;2022-09-09T13:38:56;4.45;;;1.20;;
19754;SDS011;10036;47.812;9.274;2022-09-09T13:41:26;2.42;;;1.02;;
19754;SDS011;10036;47.812;9.274;2022-09-09T13:43:58;3.38;;;1.10;;
19754;SDS011;10036;47.812;9.274;2022-09-09T13:46:28;3.88;;;1.30;;
19754;SDS011;10036;47.812;9.274;2022-09-09T13:49:00;1.67;;;0.85;;
19754;SDS011;10036;47.812;9.274;2022-09-09T13:51:29;1.60;;;1.00;;
19754;SDS011;10036;47.812;9.274;2022-09-09T13:54:02;1.88;;;1.00;;
19754;SDS011;10036;47.812;9.274;2022-09-09T13:56:31;2.40;;;0.90;;
19754;SDS011;10036;47.812;9.274;2022-09-09T13:58:59;1.75;;;1.00;;
19754;SDS011;10036;47.812;9.274;2022-09-09T14:01:26;4.40;;;1.00;;
19754;SDS011;10036;47.812;9.274;2022-09-09T14:03:53;1.80;;;1.10;;
19754;SDS011;10036;47.812;9.274;2022-09-09T14:06:20;3.17;;;1.13;;
19754;SDS011;10036;47.812;9.274;2022-09-09T14:08:48;1.60;;;1.00;;
19754;SDS011;10036;47.812;9.274;2022-09-09T14:11:16;4.78;;;1.10;;
19754;SDS011;10036;47.812;9.274;2022-09-09T14:13:44;1.92;;;0.70;;
19754;SDS011;10036;47.812;9.274;2022-09-09T14:16:13;2.10;;;0.90;;
19754;SDS011;10036;47.812;9.274;2022-09-09T14:18:39;3.65;;;1.20;;
19754;SDS011;10036;47.812;9.274;2022-09-09T14:21:06;1.92;;;1.10;;
19754;SDS011;10036;47.812;9.274;2022-09-09T14:23:34;2.38;;;1.00;;
19754;SDS011;10036;47.812;9.274;2022-09-09T14:26:01;2.15;;;1.10;;
19754;SDS011;10036;47.812;9.274;2022-09-09T14:28:28;5.00;;;1.40;;
19754;SDS011;10036;47.812;9.274;2022-09-09T14:30:54;2.63;;;0.95;;
19754;SDS011;10036;47.812;9.274;2022-09-09T14:33:26;3.13;;;1.00;;
19754;SDS011;10036;47.812;9.274;2022-09-09T14:35:55;1.30;;;0.80;;
19754;SDS011;10036;47.812;9.274;2022-09-09T14:38:23;2.05;;;1.08;;
19754;SDS011;10036;47.812;9.274;2022-09-09T14:40:50;2.92;;;0.90;;
19754;SDS011;10036;47.812;9.274;2022-09-09T14:43:16;1.85;;;0.90;;
19754;SDS011;10036;47.812;9.274;2022-09-09T14:45:43;2.03;;;1.02;;
19754;SDS011;10036;47.812;9.274;2022-09-09T14:48:10;1.42;;;0.80;;
19754;SDS011;10036;47.812;9.274;2022-09-09T14:50:39;2.00;;;1.10;;
19754;SDS011;10036;47.812;9.274;2022-09-09T14:53:06;2.38;;;1.00;;
19754;SDS011;10036;47.812;9.274;2022-09-09T14:55:33;3.25;;;1.20;;
19754;SDS011;10036;47.812;9.274;2022-09-09T14:58:00;3.20;;;1.00;;
19754;SDS011;10036;47.812;9.274;2022-09-09T15:00:27;2.60;;;1.00;;
19754;SDS011;10036;47.812;9.274;2022-09-09T15:02:54;1.23;;;0.70;;
19754;SDS011;10036;47.812;9.274;2022-09-09T15:05:21;3.00;;;1.00;;
19754;SDS011;10036;47.812;9.274;2022-09-09T15:07:50;4.05;;;1.02;;
19754;SDS011;10036;47.812;9.274;2022-09-09T15:10:17;1.50;;;0.90;;
19754;SDS011;10036;47.812;9.274;2022-09-09T15:12:44;6.10;;;1.00;;
19754;SDS011;10036;47.812;9.274;2022-09-09T15:15:11;1.35;;;0.80;;
19754;SDS011;10036;47.812;9.274;2022-09-09T15:17:38;3.00;;;1.10;;